sensor_id;sensor_type;location;lat;lon;timestamp;P1;durP1;ratioP1;P2;durP2;ratioP2
57335;SDS011;43171;50.994;18.204;2023-02-28T00:01:25;7.10;;;4.30;;
57335;SDS011;43171;50.994;18.204;2023-02-28T00:11:11;6.20;;;4.50;;
57335;SDS011;43171;50.994;18.204;2023-02-28T00:20:58;5.40;;;4.00;;
57335;SDS011;43171;50.994;18.204;2023-02-28T00:30:41;8.30;;;5.00;;
57335;SDS011;43171;50.994;18.204;2023-02-28T00:40:23;11.80;;;5.20;;
57335;SDS011;43171;50.994;18.204;2023-02-28T00:50:05;2.10;;;2.00;;
57335;SDS011;43171;50.994;18.204;2023-02-28T00:59:48;7.60;;;5.20;;
57335;SDS011;43171;50.994;18.204;2023-02-28T01:09:30;8.10;;;4.60;;
57335;SDS011;43171;50.994;18.204;2023-02-28T01:19:12;8.70;;;5.10;;
57335;SDS011;43171;50.994;18.204;2023-02-28T01:28:55;7.20;;;3.60;;
57335;SDS011;43171;50.994;18.204;2023-02-28T01:38:48;11.30;;;7.10;;
57335;SDS011;43171;50.994;18.204;2023-02-28T01:48:37;13.40;;;7.70;;
57335;SDS011;43171;50.994;18.204;2023-02-28T01:58:25;12.20;;;7.60;;
57335;SDS011;43171;50.994;18.204;2023-02-28T02:08:16;11.40;;;8.60;;
57335;SDS011;43171;50.994;18.204;2023-02-28T02:18:48;13.30;;;6.90;;
57335;SDS011;43171;50.994;18.204;2023-02-28T02:39:53;17.90;;;5.60;;
57335;SDS011;43171;50.994;18.204;2023-02-28T02:49:49;8.50;;;5.40;;
57335;SDS011;43171;50.994;18.204;2023-02-28T02:59:41;11.30;;;5.00;;
57335;SDS011;43171;50.994;18.204;2023-02-28T03:09:32;9.10;;;5.40;;
57335;SDS011;43171;50.994;18.204;2023-02-28T03:29:52;5.10;;;4.20;;
57335;SDS011;43171;50.994;18.204;2023-02-28T03:39:53;10.90;;;6.80;;
57335;SDS011;43171;50.994;18.204;2023-02-28T04:00:11;13.00;;;7.80;;
57335;SDS011;43171;50.994;18.204;2023-02-28T04:09:56;12.20;;;6.80;;
57335;SDS011;43171;50.994;18.204;2023-02-28T04:19:40;12.00;;;6.00;;
57335;SDS011;43171;50.994;18.204;2023-02-28T04:29:25;30.60;;;12.30;;
57335;SDS011;43171;50.994;18.204;2023-02-28T04:39:11;12.70;;;6.00;;
57335;SDS011;43171;50.994;18.204;2023-02-28T04:48:53;15.70;;;9.20;;
57335;SDS011;43171;50.994;18.204;2023-02-28T04:53:45;34.10;;;20.60;;
57335;SDS011;43171;50.994;18.204;2023-02-28T05:03:30;23.90;;;13.10;;
57335;SDS011;43171;50.994;18.204;2023-02-28T05:13:12;22.90;;;11.60;;
57335;SDS011;43171;50.994;18.204;2023-02-28T05:22:54;27.50;;;10.70;;
57335;SDS011;43171;50.994;18.204;2023-02-28T05:32:39;22.30;;;11.40;;
57335;SDS011;43171;50.994;18.204;2023-02-28T05:42:25;30.50;;;16.60;;
57335;SDS011;43171;50.994;18.204;2023-02-28T05:59:24;19.30;;;9.90;;
57335;SDS011;43171;50.994;18.204;2023-02-28T06:09:10;10.50;;;7.50;;
57335;SDS011;43171;50.994;18.204;2023-02-28T06:26:12;59.30;;;25.70;;
57335;SDS011;43171;50.994;18.204;2023-02-28T06:36:01;41.90;;;18.50;;
57335;SDS011;43171;50.994;18.204;2023-02-28T06:45:44;41.00;;;13.50;;
57335;SDS011;43171;50.994;18.204;2023-02-28T06:48:10;46.80;;;24.90;;
57335;SDS011;43171;50.994;18.204;2023-02-28T06:57:52;29.50;;;15.70;;
57335;SDS011;43171;50.994;18.204;2023-02-28T07:07:39;16.50;;;10.00;;
57335;SDS011;43171;50.994;18.204;2023-02-28T07:17:28;13.40;;;9.10;;
57335;SDS011;43171;50.994;18.204;2023-02-28T07:27:10;8.60;;;5.90;;
57335;SDS011;43171;50.994;18.204;2023-02-28T07:29:35;17.70;;;12.80;;
57335;SDS011;43171;50.994;18.204;2023-02-28T07:39:19;11.30;;;6.30;;
57335;SDS011;43171;50.994;18.204;2023-02-28T07:49:02;14.10;;;10.50;;
57335;SDS011;43171;50.994;18.204;2023-02-28T07:53:54;23.90;;;14.80;;
57335;SDS011;43171;50.994;18.204;2023-02-28T08:03:37;14.20;;;9.50;;
57335;SDS011;43171;50.994;18.204;2023-02-28T08:13:26;6.70;;;4.90;;
57335;SDS011;43171;50.994;18.204;2023-02-28T08:23:11;10.90;;;6.60;;
57335;SDS011;43171;50.994;18.204;2023-02-28T08:32:53;5.00;;;4.10;;
57335;SDS011;43171;50.994;18.204;2023-02-28T08:42:46;6.40;;;4.40;;
57335;SDS011;43171;50.994;18.204;2023-02-28T08:52:30;11.00;;;4.80;;
57335;SDS011;43171;50.994;18.204;2023-02-28T09:02:12;4.00;;;3.40;;
